sensor_id;sensor_type;location;lat;lon;timestamp;pressure;altitude;pressure_sealevel;temperature;humidity
43503;BME280;29098;48.184;16.298;2023-03-12T00:01:56;98964.03;;;1.11;58.92
43503;BME280;29098;48.184;16.298;2023-03-12T00:04:23;98987.16;;;1.24;59.58
43503;BME280;29098;48.184;16.298;2023-03-12T00:06:49;98996.56;;;1.46;59.04
43503;BME280;29098;48.184;16.298;2023-03-12T00:09:14;99021.03;;;1.54;59.28
43503;BME280;29098;48.184;16.298;2023-03-12T00:11:40;99021.16;;;1.42;59.28
43503;BME280;29098;48.184;16.298;2023-03-12T00:14:05;98984.41;;;1.16;59.86
43503;BME280;29098;48.184;16.298;2023-03-12T00:16:31;99024.59;;;1.43;59.68
43503;BME280;29098;48.184;16.298;2023-03-12T00:18:56;99009.06;;;1.31;60.25
43503;BME280;29098;48.184;16.298;2023-03-12T00:21:23;99047.97;;;1.43;59.94
43503;BME280;29098;48.184;16.298;2023-03-12T00:23:49;98988.91;;;1.14;60.33
43503;BME280;29098;48.184;16.298;2023-03-12T00:26:15;99022.41;;;1.17;60.75
43503;BME280;29098;48.184;16.298;2023-03-12T00:28:41;99035.81;;;1.22;61.18
43503;BME280;29098;48.184;16.298;2023-03-12T00:31:19;99032.28;;;1.23;61.46
43503;BME280;29098;48.184;16.298;2023-03-12T00:33:48;98993.44;;;0.90;62.18
43503;BME280;29098;48.184;16.298;2023-03-12T00:36:15;99025.66;;;1.09;61.65
43503;BME280;29098;48.184;16.298;2023-03-12T00:38:41;99022.91;;;1.11;61.82
43503;BME280;29098;48.184;16.298;2023-03-12T00:41:07;99033.06;;;1.14;62.13
43503;BME280;29098;48.184;16.298;2023-03-12T00:43:33;98993.31;;;0.92;62.29
43503;BME280;29098;48.184;16.298;2023-03-12T00:45:59;99018.19;;;0.94;62.80
43503;BME280;29098;48.184;16.298;2023-03-12T00:48:24;99013.56;;;0.77;63.25
43503;BME280;29098;48.184;16.298;2023-03-12T00:50:50;98995.91;;;0.92;62.77
43503;BME280;29098;48.184;16.298;2023-03-12T00:53:16;99040.69;;;1.15;62.84
43503;BME280;29098;48.184;16.298;2023-03-12T00:55:41;99035.19;;;1.08;62.79
43503;BME280;29098;48.184;16.298;2023-03-12T00:58:07;99033.13;;;1.02;62.97
43503;BME280;29098;48.184;16.298;2023-03-12T01:00:32;99008.50;;;0.75;63.67
43503;BME280;29098;48.184;16.298;2023-03-12T01:02:58;99025.66;;;0.88;63.43
43503;BME280;29098;48.184;16.298;2023-03-12T01:05:23;99052.34;;;1.00;63.27
43503;BME280;29098;48.184;16.298;2023-03-12T01:07:49;99054.06;;;0.89;64.01
43503;BME280;29098;48.184;16.298;2023-03-12T01:10:17;99063.00;;;0.97;63.82
43503;BME280;29098;48.184;16.298;2023-03-12T01:12:42;99041.22;;;0.88;63.70
43503;BME280;29098;48.184;16.298;2023-03-12T01:15:11;99044.66;;;0.88;63.89
43503;BME280;29098;48.184;16.298;2023-03-12T01:17:37;99038.25;;;0.71;64.09
43503;BME280;29098;48.184;16.298;2023-03-12T01:20:03;99009.13;;;0.46;64.50
43503;BME280;29098;48.184;16.298;2023-03-12T01:22:29;99059.25;;;0.68;64.82
43503;BME280;29098;48.184;16.298;2023-03-12T01:24:55;99032.16;;;0.39;65.05
43503;BME280;29098;48.184;16.298;2023-03-12T01:27:21;99051.31;;;0.48;65.62
43503;BME280;29098;48.184;16.298;2023-03-12T01:29:46;99020.69;;;0.42;65.68
43503;BME280;29098;48.184;16.298;2023-03-12T01:32:12;99071.31;;;0.58;65.42
43503;BME280;29098;48.184;16.298;2023-03-12T01:34:37;99048.50;;;0.40;65.18
43503;BME280;29098;48.184;16.298;2023-03-12T01:37:03;99081.56;;;0.59;65.40
43503;BME280;29098;48.184;16.298;2023-03-12T01:39:28;99059.34;;;0.45;65.73
43503;BME280;29098;48.184;16.298;2023-03-12T01:41:54;99017.56;;;0.27;65.21
43503;BME280;29098;48.184;16.298;2023-03-12T01:44:19;99055.13;;;0.33;65.61
43503;BME280;29098;48.184;16.298;2023-03-12T01:46:45;99076.72;;;0.33;65.82
43503;BME280;29098;48.184;16.298;2023-03-12T01:49:22;99077.13;;;0.50;65.95
43503;BME280;29098;48.184;16.298;2023-03-12T01:57:33;99035.72;;;0.27;66.23
43503;BME280;29098;48.184;16.298;2023-03-12T02:00:16;99030.69;;;0.14;66.70
43503;BME280;29098;48.184;16.298;2023-03-12T02:02:44;99073.81;;;0.15;67.02
43503;BME280;29098;48.184;16.298;2023-03-12T02:07:51;99065.94;;;0.05;67.41
43503;BME280;29098;48.184;16.298;2023-03-12T02:10:17;99037.81;;;-0.11;67.68
43503;BME280;29098;48.184;16.298;2023-03-12T02:12:43;99069.84;;;-0.01;67.77
43503;BME280;29098;48.184;16.298;2023-03-12T02:15:09;99035.47;;;-0.25;68.14
43503;BME280;29098;48.184;16.298;2023-03-12T02:17:36;99049.97;;;-0.23;67.98
43503;BME280;29098;48.184;16.298;2023-03-12T02:22:50;99035.03;;;-0.42;68.63
43503;BME280;29098;48.184;16.298;2023-03-12T02:25:28;99053.38;;;-0.22;68.50
43503;BME280;29098;48.184;16.298;2023-03-12T02:27:57;99057.97;;;-0.37;69.12
43503;BME280;29098;48.184;16.298;2023-03-12T02:30:24;99070.56;;;-0.33;69.61
43503;BME280;29098;48.184;16.298;2023-03-12T02:32:52;99060.19;;;-0.44;69.80
43503;BME280;29098;48.184;16.298;2023-03-12T02:35:18;99077.16;;;-0.40;70.17
43503;BME280;29098;48.184;16.298;2023-03-12T02:37:54;99066.09;;;-0.31;69.85
43503;BME280;29098;48.184;16.298;2023-03-12T02:40:28;99066.09;;;-0.42;70.10
43503;BME280;29098;48.184;16.298;2023-03-12T02:42:55;99090.84;;;-0.26;69.70
43503;BME280;29098;48.184;16.298;2023-03-12T02:45:21;99078.56;;;-0.36;69.98
43503;BME280;29098;48.184;16.298;2023-03-12T02:47:49;99092.72;;;-0.17;69.29
43503;BME280;29098;48.184;16.298;2023-03-12T02:50:15;99070.44;;;-0.43;69.51
43503;BME280;29098;48.184;16.298;2023-03-12T02:52:40;99099.41;;;-0.26;69.63
43503;BME280;29098;48.184;16.298;2023-03-12T02:55:06;99101.88;;;-0.36;70.18
43503;BME280;29098;48.184;16.298;2023-03-12T02:57:32;99071.59;;;-0.70;70.59
43503;BME280;29098;48.184;16.298;2023-03-12T03:00:05;99101.41;;;-0.52;70.57
43503;BME280;29098;48.184;16.298;2023-03-12T03:02:31;99124.97;;;-0.21;70.10
43503;BME280;29098;48.184;16.298;2023-03-12T03:04:56;99114.38;;;-0.30;70.14
43503;BME280;29098;48.184;16.298;2023-03-12T03:07:22;99117.19;;;-0.56;70.73
43503;BME280;29098;48.184;16.298;2023-03-12T03:09:47;99116.47;;;-0.58;71.35
43503;BME280;29098;48.184;16.298;2023-03-12T03:12:13;99122.13;;;-0.52;71.36
43503;BME280;29098;48.184;16.298;2023-03-12T03:14:38;99126.94;;;-0.48;71.28
43503;BME280;29098;48.184;16.298;2023-03-12T03:17:04;99085.97;;;-0.77;71.89
43503;BME280;29098;48.184;16.298;2023-03-12T03:19:29;99125.97;;;-0.70;72.06
43503;BME280;29098;48.184;16.298;2023-03-12T03:21:55;99109.84;;;-0.73;72.04
43503;BME280;29098;48.184;16.298;2023-03-12T03:24:22;99104.44;;;-0.70;71.57
43503;BME280;29098;48.184;16.298;2023-03-12T03:26:47;99139.88;;;-0.59;71.77
43503;BME280;29098;48.184;16.298;2023-03-12T03:29:13;99116.09;;;-0.64;70.86
43503;BME280;29098;48.184;16.298;2023-03-12T03:31:39;99111.53;;;-0.49;70.74
43503;BME280;29098;48.184;16.298;2023-03-12T03:34:04;99140.88;;;-0.37;70.39
43503;BME280;29098;48.184;16.298;2023-03-12T03:36:30;99118.81;;;-0.43;70.37
43503;BME280;29098;48.184;16.298;2023-03-12T03:38:56;99130.84;;;-0.42;70.76
43503;BME280;29098;48.184;16.298;2023-03-12T03:41:21;99145.31;;;-0.39;71.05
43503;BME280;29098;48.184;16.298;2023-03-12T03:43:47;99163.34;;;-0.49;71.07
43503;BME280;29098;48.184;16.298;2023-03-12T03:46:13;99163.09;;;-0.46;71.15
43503;BME280;29098;48.184;16.298;2023-03-12T03:48:40;99149.69;;;-0.29;70.51
43503;BME280;29098;48.184;16.298;2023-03-12T03:51:06;99099.22;;;-0.93;71.12
43503;BME280;29098;48.184;16.298;2023-03-12T03:53:32;99148.66;;;-0.73;71.93
43503;BME280;29098;48.184;16.298;2023-03-12T03:56:05;99152.28;;;-0.87;72.35
43503;BME280;29098;48.184;16.298;2023-03-12T03:58:31;99130.19;;;-0.80;71.88
43503;BME280;29098;48.184;16.298;2023-03-12T04:00:57;99173.91;;;-0.52;71.50
43503;BME280;29098;48.184;16.298;2023-03-12T04:03:22;99169.78;;;-0.55;71.37
43503;BME280;29098;48.184;16.298;2023-03-12T04:05:53;99137.41;;;-0.72;71.08
43503;BME280;29098;48.184;16.298;2023-03-12T04:08:19;99121.19;;;-0.99;71.80
43503;BME280;29098;48.184;16.298;2023-03-12T04:10:45;99144.16;;;-0.83;72.19
43503;BME280;29098;48.184;16.298;2023-03-12T04:13:10;99147.44;;;-0.92;72.23
43503;BME280;29098;48.184;16.298;2023-03-12T04:15:36;99175.28;;;-0.71;72.13
43503;BME280;29098;48.184;16.298;2023-03-12T04:18:01;99148.41;;;-0.81;72.01
43503;BME280;29098;48.184;16.298;2023-03-12T04:20:27;99170.50;;;-0.89;72.39
43503;BME280;29098;48.184;16.298;2023-03-12T04:22:52;99175.22;;;-0.83;72.42
43503;BME280;29098;48.184;16.298;2023-03-12T04:25:18;99173.81;;;-0.87;72.53
43503;BME280;29098;48.184;16.298;2023-03-12T04:27:43;99185.25;;;-0.78;72.64
43503;BME280;29098;48.184;16.298;2023-03-12T04:30:09;99140.25;;;-1.00;71.98
43503;BME280;29098;48.184;16.298;2023-03-12T04:32:35;99166.00;;;-0.98;71.94
43503;BME280;29098;48.184;16.298;2023-03-12T04:35:00;99174.97;;;-0.91;72.10
43503;BME280;29098;48.184;16.298;2023-03-12T04:37:26;99189.63;;;-0.78;71.34
43503;BME280;29098;48.184;16.298;2023-03-12T04:39:51;99207.84;;;-0.80;71.92
43503;BME280;29098;48.184;16.298;2023-03-12T04:42:17;99153.75;;;-1.07;72.44
43503;BME280;29098;48.184;16.298;2023-03-12T04:44:42;99198.97;;;-0.89;72.34
43503;BME280;29098;48.184;16.298;2023-03-12T04:47:08;99193.31;;;-0.94;72.25
43503;BME280;29098;48.184;16.298;2023-03-12T04:49:33;99214.72;;;-0.92;72.20
43503;BME280;29098;48.184;16.298;2023-03-12T04:51:59;99164.97;;;-1.20;73.03
43503;BME280;29098;48.184;16.298;2023-03-12T04:54:24;99183.84;;;-1.06;72.71
43503;BME280;29098;48.184;16.298;2023-03-12T04:56:50;99204.34;;;-1.03;73.03
43503;BME280;29098;48.184;16.298;2023-03-12T04:59:15;99175.03;;;-1.28;73.48
43503;BME280;29098;48.184;16.298;2023-03-12T05:01:42;99204.53;;;-1.06;73.40
43503;BME280;29098;48.184;16.298;2023-03-12T05:04:08;99187.41;;;-1.45;73.62
43503;BME280;29098;48.184;16.298;2023-03-12T05:06:33;99190.56;;;-1.28;74.02
43503;BME280;29098;48.184;16.298;2023-03-12T05:08:59;99205.13;;;-1.27;73.85
43503;BME280;29098;48.184;16.298;2023-03-12T05:11:25;99204.84;;;-1.22;73.89
43503;BME280;29098;48.184;16.298;2023-03-12T05:13:50;99217.34;;;-1.29;74.04
43503;BME280;29098;48.184;16.298;2023-03-12T05:16:17;99222.97;;;-1.35;73.87
43503;BME280;29098;48.184;16.298;2023-03-12T05:18:43;99208.88;;;-1.31;74.17
43503;BME280;29098;48.184;16.298;2023-03-12T05:21:14;99197.59;;;-1.30;73.89
43503;BME280;29098;48.184;16.298;2023-03-12T05:23:40;99217.63;;;-1.21;73.93
43503;BME280;29098;48.184;16.298;2023-03-12T05:26:14;99185.16;;;-1.49;73.87
43503;BME280;29098;48.184;16.298;2023-03-12T05:28:40;99200.75;;;-1.38;74.18
43503;BME280;29098;48.184;16.298;2023-03-12T05:31:08;99214.31;;;-1.47;74.36
43503;BME280;29098;48.184;16.298;2023-03-12T05:33:34;99212.41;;;-1.32;74.37
43503;BME280;29098;48.184;16.298;2023-03-12T05:36:00;99213.03;;;-1.29;74.49
43503;BME280;29098;48.184;16.298;2023-03-12T05:38:26;99215.19;;;-1.35;74.12
43503;BME280;29098;48.184;16.298;2023-03-12T05:40:53;99234.66;;;-1.05;73.67
43503;BME280;29098;48.184;16.298;2023-03-12T05:43:19;99228.34;;;-1.01;72.38
43503;BME280;29098;48.184;16.298;2023-03-12T05:45:45;99250.78;;;-1.02;73.44
43503;BME280;29098;48.184;16.298;2023-03-12T05:48:11;99232.66;;;-1.02;72.44
43503;BME280;29098;48.184;16.298;2023-03-12T05:50:36;99275.69;;;-0.88;72.57
43503;BME280;29098;48.184;16.298;2023-03-12T05:53:02;99241.13;;;-0.87;70.91
43503;BME280;29098;48.184;16.298;2023-03-12T05:55:27;99216.63;;;-0.83;70.24
43503;BME280;29098;48.184;16.298;2023-03-12T05:57:53;99266.41;;;-0.54;70.35
43503;BME280;29098;48.184;16.298;2023-03-12T06:00:19;99291.44;;;-0.42;70.06
43503;BME280;29098;48.184;16.298;2023-03-12T06:02:45;99256.31;;;-0.46;68.48
43503;BME280;29098;48.184;16.298;2023-03-12T06:05:10;99269.44;;;-0.25;68.48
43503;BME280;29098;48.184;16.298;2023-03-12T06:07:36;99285.97;;;-0.15;68.06
43503;BME280;29098;48.184;16.298;2023-03-12T06:10:02;99273.59;;;-0.22;67.22
43503;BME280;29098;48.184;16.298;2023-03-12T06:12:28;99261.56;;;-0.23;67.40
43503;BME280;29098;48.184;16.298;2023-03-12T06:14:53;99265.97;;;-0.12;66.66
43503;BME280;29098;48.184;16.298;2023-03-12T06:17:19;99278.13;;;-0.02;66.41
43503;BME280;29098;48.184;16.298;2023-03-12T06:19:44;99257.84;;;0.04;65.60
43503;BME280;29098;48.184;16.298;2023-03-12T06:22:10;99260.81;;;0.10;65.61
43503;BME280;29098;48.184;16.298;2023-03-12T06:24:35;99306.91;;;0.30;65.45
43503;BME280;29098;48.184;16.298;2023-03-12T06:27:01;99316.94;;;0.34;65.01
43503;BME280;29098;48.184;16.298;2023-03-12T06:29:26;99272.00;;;0.22;65.12
43503;BME280;29098;48.184;16.298;2023-03-12T06:31:52;99285.69;;;0.47;64.69
43503;BME280;29098;48.184;16.298;2023-03-12T06:34:17;99286.66;;;0.35;64.74
43503;BME280;29098;48.184;16.298;2023-03-12T06:36:43;99300.56;;;0.45;64.21
43503;BME280;29098;48.184;16.298;2023-03-12T06:39:09;99290.88;;;0.47;63.86
43503;BME280;29098;48.184;16.298;2023-03-12T06:41:35;99311.88;;;0.67;63.83
43503;BME280;29098;48.184;16.298;2023-03-12T06:44:01;99278.13;;;0.56;63.62
43503;BME280;29098;48.184;16.298;2023-03-12T06:46:30;99293.00;;;0.53;63.91
43503;BME280;29098;48.184;16.298;2023-03-12T06:48:56;99309.63;;;0.62;63.98
43503;BME280;29098;48.184;16.298;2023-03-12T06:51:21;99278.84;;;0.69;63.27
43503;BME280;29098;48.184;16.298;2023-03-12T06:53:47;99299.81;;;0.89;63.00
43503;BME280;29098;48.184;16.298;2023-03-12T06:56:13;99281.19;;;0.84;62.62
43503;BME280;29098;48.184;16.298;2023-03-12T06:58:39;99298.88;;;0.90;62.70
43503;BME280;29098;48.184;16.298;2023-03-12T07:01:05;99293.06;;;0.98;62.63
43503;BME280;29098;48.184;16.298;2023-03-12T07:03:30;99310.72;;;1.15;62.82
43503;BME280;29098;48.184;16.298;2023-03-12T07:05:57;99308.03;;;1.17;62.51
43503;BME280;29098;48.184;16.298;2023-03-12T07:08:23;99311.19;;;1.32;61.34
43503;BME280;29098;48.184;16.298;2023-03-12T07:10:49;99291.47;;;1.29;61.76
43503;BME280;29098;48.184;16.298;2023-03-12T07:13:15;99289.88;;;1.38;60.91
43503;BME280;29098;48.184;16.298;2023-03-12T07:15:40;99279.59;;;1.48;60.08
43503;BME280;29098;48.184;16.298;2023-03-12T07:18:08;99287.84;;;1.53;60.75
43503;BME280;29098;48.184;16.298;2023-03-12T07:20:39;99286.31;;;1.50;60.50
43503;BME280;29098;48.184;16.298;2023-03-12T07:23:05;99290.44;;;1.53;60.42
43503;BME280;29098;48.184;16.298;2023-03-12T07:25:34;99316.31;;;1.76;60.16
43503;BME280;29098;48.184;16.298;2023-03-12T07:28:00;99279.66;;;1.58;60.01
43503;BME280;29098;48.184;16.298;2023-03-12T07:30:25;99333.84;;;1.95;59.84
43503;BME280;29098;48.184;16.298;2023-03-12T07:32:51;99296.69;;;1.83;59.57
43503;BME280;29098;48.184;16.298;2023-03-12T07:35:17;99298.63;;;1.91;58.98
43503;BME280;29098;48.184;16.298;2023-03-12T07:37:42;99308.44;;;2.30;57.94
43503;BME280;29098;48.184;16.298;2023-03-12T07:40:08;99318.34;;;2.15;57.47
43503;BME280;29098;48.184;16.298;2023-03-12T07:42:34;99330.13;;;2.40;57.33
43503;BME280;29098;48.184;16.298;2023-03-12T07:45:00;99338.84;;;2.60;56.36
43503;BME280;29098;48.184;16.298;2023-03-12T07:47:26;99321.81;;;2.46;56.19
43503;BME280;29098;48.184;16.298;2023-03-12T07:49:51;99318.47;;;2.35;56.40
43503;BME280;29098;48.184;16.298;2023-03-12T07:52:18;99295.50;;;2.40;56.05
43503;BME280;29098;48.184;16.298;2023-03-12T07:54:44;99339.56;;;2.63;56.02
43503;BME280;29098;48.184;16.298;2023-03-12T07:57:10;99324.13;;;2.71;55.28
43503;BME280;29098;48.184;16.298;2023-03-12T07:59:35;99330.28;;;2.70;55.05
43503;BME280;29098;48.184;16.298;2023-03-12T08:02:01;99313.38;;;2.64;54.93
43503;BME280;29098;48.184;16.298;2023-03-12T08:04:26;99318.50;;;2.76;54.90
43503;BME280;29098;48.184;16.298;2023-03-12T08:06:52;99329.66;;;2.87;54.89
43503;BME280;29098;48.184;16.298;2023-03-12T08:09:17;99326.38;;;2.95;53.59
43503;BME280;29098;48.184;16.298;2023-03-12T08:11:43;99307.19;;;2.86;53.44
43503;BME280;29098;48.184;16.298;2023-03-12T08:14:08;99326.53;;;3.04;53.85
43503;BME280;29098;48.184;16.298;2023-03-12T08:16:34;99310.69;;;3.17;53.08
43503;BME280;29098;48.184;16.298;2023-03-12T08:18:59;99347.56;;;3.32;53.12
43503;BME280;29098;48.184;16.298;2023-03-12T08:21:25;99307.66;;;3.31;53.14
43503;BME280;29098;48.184;16.298;2023-03-12T08:23:50;99347.06;;;3.48;52.25
43503;BME280;29098;48.184;16.298;2023-03-12T08:26:16;99312.47;;;3.55;51.52
43503;BME280;29098;48.184;16.298;2023-03-12T08:28:42;99305.34;;;3.58;50.47
43503;BME280;29098;48.184;16.298;2023-03-12T08:31:09;99313.88;;;3.60;50.75
43503;BME280;29098;48.184;16.298;2023-03-12T08:33:35;99303.00;;;3.54;50.41
43503;BME280;29098;48.184;16.298;2023-03-12T08:36:05;99307.28;;;3.36;50.90
43503;BME280;29098;48.184;16.298;2023-03-12T08:38:31;99346.09;;;3.68;51.10
43503;BME280;29098;48.184;16.298;2023-03-12T08:40:58;99321.25;;;3.94;49.64
43503;BME280;29098;48.184;16.298;2023-03-12T08:43:25;99304.50;;;3.87;50.76
43503;BME280;29098;48.184;16.298;2023-03-12T08:45:58;99328.63;;;4.08;49.06
43503;BME280;29098;48.184;16.298;2023-03-12T08:48:25;99301.44;;;4.11;48.54
43503;BME280;29098;48.184;16.298;2023-03-12T08:50:50;99308.53;;;4.29;48.37
43503;BME280;29098;48.184;16.298;2023-03-12T08:53:18;99328.50;;;4.20;47.95
43503;BME280;29098;48.184;16.298;2023-03-12T08:55:44;99320.41;;;4.03;47.45
43503;BME280;29098;48.184;16.298;2023-03-12T08:58:10;99332.88;;;4.09;47.85
43503;BME280;29098;48.184;16.298;2023-03-12T09:00:35;99334.78;;;4.27;46.83
43503;BME280;29098;48.184;16.298;2023-03-12T09:03:01;99353.56;;;4.41;46.87
43503;BME280;29098;48.184;16.298;2023-03-12T09:05:26;99339.50;;;4.61;46.06
43503;BME280;29098;48.184;16.298;2023-03-12T09:07:56;99323.88;;;4.42;45.78
43503;BME280;29098;48.184;16.298;2023-03-12T09:10:22;99333.19;;;4.54;44.37
43503;BME280;29098;48.184;16.298;2023-03-12T09:12:47;99347.38;;;4.89;43.19
43503;BME280;29098;48.184;16.298;2023-03-12T09:15:13;99346.47;;;4.71;43.76
43503;BME280;29098;48.184;16.298;2023-03-12T09:17:39;99334.31;;;4.51;44.25
43503;BME280;29098;48.184;16.298;2023-03-12T09:20:06;99338.19;;;4.37;44.85
43503;BME280;29098;48.184;16.298;2023-03-12T09:22:36;99339.75;;;4.58;44.17
43503;BME280;29098;48.184;16.298;2023-03-12T09:25:03;99333.97;;;4.64;44.10
43503;BME280;29098;48.184;16.298;2023-03-12T09:27:29;99332.44;;;4.72;44.01
43503;BME280;29098;48.184;16.298;2023-03-12T09:29:54;99349.63;;;5.02;42.99
43503;BME280;29098;48.184;16.298;2023-03-12T09:32:20;99363.22;;;5.06;42.99
43503;BME280;29098;48.184;16.298;2023-03-12T09:34:45;99329.75;;;4.91;42.92
43503;BME280;29098;48.184;16.298;2023-03-12T09:37:11;99343.56;;;5.02;42.98
43503;BME280;29098;48.184;16.298;2023-03-12T09:39:36;99341.75;;;5.12;42.83
43503;BME280;29098;48.184;16.298;2023-03-12T09:42:04;99344.31;;;5.40;42.99
43503;BME280;29098;48.184;16.298;2023-03-12T09:44:41;99331.31;;;5.48;42.76
43503;BME280;29098;48.184;16.298;2023-03-12T09:49:50;99321.91;;;5.56;41.70
43503;BME280;29098;48.184;16.298;2023-03-12T09:52:43;99338.44;;;5.74;41.58
43503;BME280;29098;48.184;16.298;2023-03-12T09:55:15;99328.03;;;5.83;41.32
43503;BME280;29098;48.184;16.298;2023-03-12T09:57:45;99328.25;;;5.89;41.55
43503;BME280;29098;48.184;16.298;2023-03-12T10:00:17;99331.31;;;5.85;41.50
43503;BME280;29098;48.184;16.298;2023-03-12T10:05:43;99292.78;;;6.13;42.10
43503;BME280;29098;48.184;16.298;2023-03-12T10:10:49;99332.25;;;6.81;40.41
43503;BME280;29098;48.184;16.298;2023-03-12T10:16:25;99336.63;;;6.72;39.62
43503;BME280;29098;48.184;16.298;2023-03-12T10:19:10;99335.78;;;6.64;40.07
43503;BME280;29098;48.184;16.298;2023-03-12T10:22:06;99313.03;;;6.64;40.17
43503;BME280;29098;48.184;16.298;2023-03-12T10:27:14;99312.84;;;6.66;40.84
43503;BME280;29098;48.184;16.298;2023-03-12T10:29:43;99318.88;;;6.93;39.92
43503;BME280;29098;48.184;16.298;2023-03-12T10:37:28;99305.56;;;7.37;40.49
43503;BME280;29098;48.184;16.298;2023-03-12T10:39:56;99320.47;;;7.70;39.14
43503;BME280;29098;48.184;16.298;2023-03-12T10:42:24;99270.81;;;7.77;38.72
43503;BME280;29098;48.184;16.298;2023-03-12T10:44:52;99314.56;;;7.93;38.46
43503;BME280;29098;48.184;16.298;2023-03-12T10:49:53;99274.84;;;8.77;37.66
43503;BME280;29098;48.184;16.298;2023-03-12T10:52:22;99293.72;;;9.36;36.90
43503;BME280;29098;48.184;16.298;2023-03-12T10:54:50;99283.28;;;9.51;36.09
43503;BME280;29098;48.184;16.298;2023-03-12T10:57:16;99307.75;;;9.75;35.87
43503;BME280;29098;48.184;16.298;2023-03-12T10:59:44;99283.31;;;9.43;36.13
43503;BME280;29098;48.184;16.298;2023-03-12T11:04:51;99268.97;;;10.07;35.07
43503;BME280;29098;48.184;16.298;2023-03-12T11:09:44;99287.38;;;10.98;33.00
43503;BME280;29098;48.184;16.298;2023-03-12T11:12:25;99269.94;;;11.40;32.45
43503;BME280;29098;48.184;16.298;2023-03-12T11:14:51;99271.13;;;11.16;32.37
43503;BME280;29098;48.184;16.298;2023-03-12T11:17:24;99289.63;;;12.45;30.97
43503;BME280;29098;48.184;16.298;2023-03-12T11:19:51;99262.22;;;13.35;29.70
43503;BME280;29098;48.184;16.298;2023-03-12T11:22:31;99268.81;;;13.66;28.87
43503;BME280;29098;48.184;16.298;2023-03-12T11:24:59;99238.25;;;13.70;29.01
43503;BME280;29098;48.184;16.298;2023-03-12T11:27:41;99242.06;;;13.07;28.61
43503;BME280;29098;48.184;16.298;2023-03-12T11:30:14;99247.59;;;13.39;29.05
43503;BME280;29098;48.184;16.298;2023-03-12T11:32:45;99218.25;;;13.27;28.44
43503;BME280;29098;48.184;16.298;2023-03-12T11:35:14;99248.25;;;13.68;28.53
43503;BME280;29098;48.184;16.298;2023-03-12T11:38:19;99208.63;;;14.14;27.61
43503;BME280;29098;48.184;16.298;2023-03-12T11:41:07;99234.16;;;13.75;28.22
43503;BME280;29098;48.184;16.298;2023-03-12T11:44:12;99216.53;;;12.79;29.52
43503;BME280;29098;48.184;16.298;2023-03-12T11:47:06;99220.84;;;12.31;29.85
43503;BME280;29098;48.184;16.298;2023-03-12T11:49:53;99191.16;;;10.93;31.46
43503;BME280;29098;48.184;16.298;2023-03-12T11:53:20;99229.44;;;10.89;32.82
43503;BME280;29098;48.184;16.298;2023-03-12T12:06:55;99175.53;;;10.92;32.31
43503;BME280;29098;48.184;16.298;2023-03-12T12:09:37;99187.59;;;12.09;30.92
43503;BME280;29098;48.184;16.298;2023-03-12T12:15:26;99191.34;;;13.10;28.90
43503;BME280;29098;48.184;16.298;2023-03-12T12:18:08;99181.59;;;12.00;30.56
43503;BME280;29098;48.184;16.298;2023-03-12T12:23:40;99172.47;;;12.38;29.84
43503;BME280;29098;48.184;16.298;2023-03-12T12:26:12;99160.41;;;13.18;29.39
43503;BME280;29098;48.184;16.298;2023-03-12T12:31:36;99166.50;;;12.22;30.89
43503;BME280;29098;48.184;16.298;2023-03-12T12:34:15;99191.75;;;12.25;29.89
43503;BME280;29098;48.184;16.298;2023-03-12T12:36:51;99157.19;;;10.83;31.96
43503;BME280;29098;48.184;16.298;2023-03-12T12:41:53;99142.53;;;11.24;32.46
43503;BME280;29098;48.184;16.298;2023-03-12T12:44:35;99175.91;;;11.61;31.58
43503;BME280;29098;48.184;16.298;2023-03-12T12:47:06;99153.53;;;11.28;32.63
43503;BME280;29098;48.184;16.298;2023-03-12T12:49:47;99169.31;;;11.21;32.49
43503;BME280;29098;48.184;16.298;2023-03-12T12:52:18;99124.97;;;11.10;32.81
43503;BME280;29098;48.184;16.298;2023-03-12T13:00:36;99138.69;;;10.99;32.93
43503;BME280;29098;48.184;16.298;2023-03-12T13:03:04;99123.28;;;10.59;33.47
43503;BME280;29098;48.184;16.298;2023-03-12T13:08:03;99119.00;;;10.06;34.41
43503;BME280;29098;48.184;16.298;2023-03-12T13:12:58;99145.41;;;10.12;34.92
43503;BME280;29098;48.184;16.298;2023-03-12T13:20:32;99114.69;;;9.68;34.47
43503;BME280;29098;48.184;16.298;2023-03-12T13:23:20;99140.00;;;9.84;33.82
43503;BME280;29098;48.184;16.298;2023-03-12T13:28:54;99103.47;;;9.36;35.75
43503;BME280;29098;48.184;16.298;2023-03-12T13:34:14;99136.34;;;9.40;35.56
43503;BME280;29098;48.184;16.298;2023-03-12T13:36:46;99121.56;;;8.77;35.12
43503;BME280;29098;48.184;16.298;2023-03-12T13:47:21;99143.53;;;8.84;35.35
43503;BME280;29098;48.184;16.298;2023-03-12T13:49:55;99168.00;;;8.85;35.98
43503;BME280;29098;48.184;16.298;2023-03-12T13:52:40;99165.13;;;8.40;36.49
43503;BME280;29098;48.184;16.298;2023-03-12T13:57:47;99199.88;;;8.50;36.47
43503;BME280;29098;48.184;16.298;2023-03-12T14:02:47;99170.47;;;8.55;36.71
43503;BME280;29098;48.184;16.298;2023-03-12T14:05:14;99201.59;;;8.74;36.78
43503;BME280;29098;48.184;16.298;2023-03-12T14:07:53;99185.56;;;8.61;36.22
43503;BME280;29098;48.184;16.298;2023-03-12T14:13:38;99154.97;;;8.68;36.93
43503;BME280;29098;48.184;16.298;2023-03-12T14:16:17;99189.31;;;8.67;37.53
43503;BME280;29098;48.184;16.298;2023-03-12T14:18:48;99167.69;;;8.56;37.33
43503;BME280;29098;48.184;16.298;2023-03-12T14:21:15;99194.03;;;8.71;37.83
43503;BME280;29098;48.184;16.298;2023-03-12T14:23:50;99195.81;;;8.79;37.96
43503;BME280;29098;48.184;16.298;2023-03-12T14:26:26;99168.44;;;8.65;38.49
43503;BME280;29098;48.184;16.298;2023-03-12T14:31:25;99207.00;;;8.73;37.92
43503;BME280;29098;48.184;16.298;2023-03-12T14:34:15;99194.19;;;8.70;37.68
43503;BME280;29098;48.184;16.298;2023-03-12T14:36:46;99197.53;;;8.63;38.29
43503;BME280;29098;48.184;16.298;2023-03-12T14:39:27;99166.38;;;8.52;37.61
43503;BME280;29098;48.184;16.298;2023-03-12T14:42:05;99199.97;;;8.65;37.62
43503;BME280;29098;48.184;16.298;2023-03-12T14:44:34;99173.81;;;8.40;38.09